Time;durP1;ratioP1;P1;durP2;ratioP2;P2;SDS_P1;SDS_P2;PMS_P1;PMS_P2;Temp;Humidity;BMP_temperature;BMP_pressure;BME280_temperature;BME280_humidity;BME280_pressure;Samples;Min_cycle;Max_cycle;Signal;HPM_P1;HPM_P2
2023/12/23 00:01:12;;;;;;;24.60;23.00;;;;;;;4.07;100.00;99466.56;5008677;28;20060;-74
2023/12/23 00:03:41;;;;;;;23.77;22.17;;;;;;;4.75;100.00;99455.28;5011720;28;20128;-75
2023/12/23 00:06:07;;;;;;;22.75;21.25;;;;;;;4.40;100.00;99462.47;5007446;28;20050;-75
2023/12/23 00:08:34;;;;;;;24.25;22.65;;;;;;;4.65;100.00;99468.81;5016835;28;20498;-74
2023/12/23 00:11:01;;;;;;;23.65;21.95;;;;;;;4.40;100.00;99467.75;5010280;28;20503;-74
2023/12/23 00:13:28;;;;;;;23.45;21.95;;;;;;;4.12;100.00;99481.75;5013558;28;20057;-74
2023/12/23 00:15:59;;;;;;;22.10;20.60;;;;;;;4.28;100.00;99483.25;5007500;28;20057;-74
2023/12/23 00:18:26;;;;;;;23.50;21.90;;;;;;;4.17;100.00;99491.69;5007468;28;20054;-75
2023/12/23 00:20:54;;;;;;;25.00;23.40;;;;;;;3.95;100.00;99497.00;5015660;28;20045;-74
2023/12/23 00:23:21;;;;;;;23.92;22.20;;;;;;;4.63;100.00;99485.81;5005779;28;20054;-75
2023/12/23 00:25:48;;;;;;;25.25;23.55;;;;;;;4.11;100.00;99491.47;5007980;28;20069;-75
2023/12/23 00:28:15;;;;;;;23.95;22.25;;;;;;;3.95;100.00;99490.94;5003773;28;20119;-74
2023/12/23 00:30:42;;;;;;;23.60;22.00;;;;;;;3.93;100.00;99498.19;5004959;28;20081;-75
2023/12/23 00:33:08;;;;;;;24.20;22.50;;;;;;;3.82;100.00;99492.50;5011605;28;20049;-75
2023/12/23 00:35:35;;;;;;;24.35;22.70;;;;;;;4.04;100.00;99498.47;5007967;28;20054;-75
2023/12/23 00:38:04;;;;;;;23.80;22.20;;;;;;;4.39;100.00;99487.13;5006933;28;20423;-75
2023/12/23 00:40:31;;;;;;;24.60;23.00;;;;;;;4.01;100.00;99490.97;5013170;28;20422;-75
2023/12/23 00:42:57;;;;;;;23.48;21.88;;;;;;;4.20;100.00;99499.19;5019377;28;20443;-74
2023/12/23 00:45:24;;;;;;;23.38;21.77;;;;;;;4.23;100.00;99496.97;5006063;28;20062;-75
2023/12/23 00:47:51;;;;;;;25.00;23.30;;;;;;;4.29;100.00;99485.66;5013090;28;20069;-75
2023/12/23 00:50:18;;;;;;;29.20;26.98;;;;;;;4.41;100.00;99483.31;4998804;28;20421;-74
2023/12/23 00:52:45;;;;;;;23.40;21.80;;;;;;;4.23;100.00;99481.19;5006868;28;20049;-75
2023/12/23 00:55:13;;;;;;;24.70;23.00;;;;;;;4.22;100.00;99479.59;5009886;28;20058;-76
2023/12/23 00:57:40;;;;;;;22.70;21.20;;;;;;;4.27;100.00;99474.56;5011143;28;20057;-73
2023/12/23 01:00:08;;;;;;;28.75;26.85;;;;;;;4.75;100.00;99479.81;5003665;28;20140;-74
2023/12/23 01:02:35;;;;;;;25.15;23.45;;;;;;;4.94;100.00;99470.34;5005783;28;20079;-74
2023/12/23 01:05:02;;;;;;;25.73;24.02;;;;;;;4.64;100.00;99474.31;5011101;28;20053;-73
2023/12/23 01:07:29;;;;;;;24.48;22.88;;;;;;;4.74;100.00;99490.50;5007461;28;20442;-74
2023/12/23 01:09:57;;;;;;;26.52;24.77;;;;;;;4.78;100.00;99494.34;5016093;28;20289;-74
2023/12/23 01:12:25;;;;;;;27.67;25.77;;;;;;;4.81;100.00;99497.44;5019254;28;20085;-74
2023/12/23 01:14:52;;;;;;;26.30;24.60;;;;;;;4.67;100.00;99481.78;5008110;28;20049;-73
2023/12/23 01:17:19;;;;;;;24.88;23.17;;;;;;;4.81;100.00;99484.28;5013404;28;20061;-74
2023/12/23 01:19:46;;;;;;;24.90;23.20;;;;;;;4.94;100.00;99474.78;5004219;28;20447;-74
2023/12/23 01:22:13;;;;;;;26.27;24.48;;;;;;;4.76;100.00;99478.78;5007624;28;20058;-74
2023/12/23 01:24:40;;;;;;;30.30;28.42;;;;;;;5.13;100.00;99476.63;5005919;28;20450;-73
2023/12/23 01:27:07;;;;;;;24.95;23.25;;;;;;;4.59;100.00;99464.38;5005427;28;20049;-73
2023/12/23 01:29:37;;;;;;;23.45;21.85;;;;;;;4.70;100.00;99463.00;5007002;28;20466;-75
2023/12/23 01:32:07;;;;;;;26.20;24.40;;;;;;;4.76;100.00;99449.84;5014151;28;20056;-73
2023/12/23 01:34:36;;;;;;;27.67;25.88;;;;;;;4.59;100.00;99445.94;5008988;28;20563;-72
2023/12/23 01:37:05;;;;;;;25.38;23.67;;;;;;;4.53;100.00;99452.00;5006207;28;20513;-72
2023/12/23 01:39:32;;;;;;;27.58;25.77;;;;;;;5.07;100.00;99447.69;5014152;28;20435;-72
2023/12/23 01:41:59;;;;;;;26.20;24.40;;;;;;;4.91;100.00;99440.97;5012173;28;20049;-73
2023/12/23 01:44:26;;;;;;;26.45;24.65;;;;;;;4.72;100.00;99432.03;5006195;28;20057;-73
2023/12/23 01:46:56;;;;;;;26.45;24.55;;;;;;;5.33;100.00;99412.66;5004052;28;20522;-74
2023/12/23 01:49:24;;;;;;;24.00;22.20;;;;;;;4.80;100.00;99413.44;5005675;28;20484;-74
2023/12/23 01:51:53;;;;;;;23.80;22.10;;;;;;;4.87;100.00;99411.63;5005293;28;20049;-73
2023/12/23 01:54:21;;;;;;;26.60;24.80;;;;;;;5.00;100.00;99424.00;5004055;28;20058;-73
2023/12/23 01:56:50;;;;;;;29.13;27.27;;;;;;;4.84;100.00;99414.63;5011426;28;20053;-74
2023/12/23 01:59:18;;;;;;;23.08;21.48;;;;;;;5.00;100.00;99414.28;5007520;28;20050;-72
2023/12/23 02:01:45;;;;;;;25.73;23.92;;;;;;;4.82;100.00;99416.69;5008520;28;20057;-73
2023/12/23 02:04:14;;;;;;;28.23;26.35;;;;;;;4.88;100.00;99415.88;5019772;28;20064;-72
2023/12/23 02:06:41;;;;;;;29.65;27.45;;;;;;;4.76;100.00;99417.47;5005985;28;20053;-73
2023/12/23 02:09:07;;;;;;;24.73;23.13;;;;;;;5.41;100.00;99415.06;5007191;28;20053;-73
2023/12/23 02:11:41;;;;;;;23.33;21.73;;;;;;;4.98;100.00;99418.13;5016360;28;20057;-74
2023/12/23 02:14:20;;;;;;;25.55;23.85;;;;;;;4.87;100.00;99419.53;5009283;28;20467;-73
2023/12/23 02:16:48;;;;;;;22.95;21.45;;;;;;;5.08;100.00;99422.97;5010749;28;20056;-73
2023/12/23 02:19:16;;;;;;;24.25;22.55;;;;;;;5.43;100.00;99429.66;5012396;28;20054;-73
2023/12/23 02:21:45;;;;;;;26.58;24.80;;;;;;;5.45;100.00;99421.56;5016196;28;20054;-73
2023/12/23 02:24:12;;;;;;;30.35;28.35;;;;;;;5.45;100.00;99400.50;5013979;28;20058;-73
2023/12/23 02:26:41;;;;;;;27.52;25.63;;;;;;;5.45;100.00;99398.69;5013096;28;20053;-73
2023/12/23 02:29:09;;;;;;;27.42;25.52;;;;;;;5.51;100.00;99386.53;5008063;28;20514;-73
2023/12/23 02:31:36;;;;;;;24.70;23.00;;;;;;;5.31;100.00;99375.19;5010920;28;20136;-73
2023/12/23 02:34:03;;;;;;;25.10;23.40;;;;;;;5.27;100.00;99385.34;5013410;28;20046;-73
2023/12/23 02:36:29;;;;;;;24.90;23.20;;;;;;;5.19;100.00;99369.72;5007810;28;20077;-73
2023/12/23 02:38:58;;;;;;;28.10;26.30;;;;;;;5.16;100.00;99375.41;5002578;28;20057;-73
2023/12/23 02:41:25;;;;;;;25.23;23.52;;;;;;;5.10;100.00;99374.38;5008826;28;20050;-73
2023/12/23 02:43:51;;;;;;;23.73;22.15;;;;;;;5.14;100.00;99369.53;5008890;28;20491;-73
2023/12/23 02:46:18;;;;;;;25.48;23.88;;;;;;;5.12;100.00;99380.28;5007447;28;20482;-73
2023/12/23 02:48:45;;;;;;;30.23;28.23;;;;;;;5.26;100.00;99373.16;5008158;28;20057;-73
2023/12/23 02:51:12;;;;;;;25.45;23.75;;;;;;;5.23;100.00;99387.56;5010306;28;20054;-72
2023/12/23 02:53:39;;;;;;;23.73;22.23;;;;;;;5.50;100.00;99392.78;5012837;28;20054;-73
2023/12/23 02:56:07;;;;;;;26.17;24.48;;;;;;;5.26;100.00;99388.97;5008936;28;20050;-73
2023/12/23 02:58:34;;;;;;;25.20;23.55;;;;;;;5.24;100.00;99404.97;5012496;28;20062;-73
2023/12/23 03:01:07;;;;;;;28.23;26.42;;;;;;;5.31;100.00;99404.97;5010005;28;20045;-73
2023/12/23 03:03:33;;;;;;;26.55;24.85;;;;;;;5.19;100.00;99394.22;5014966;28;20061;-73
2023/12/23 03:06:00;;;;;;;30.17;28.20;;;;;;;5.26;100.00;99397.69;5014550;28;20049;-73
2023/12/23 03:08:27;;;;;;;28.40;26.50;;;;;;;5.12;100.00;99406.59;5006373;28;20061;-73
2023/12/23 03:10:54;;;;;;;27.73;25.92;;;;;;;5.14;100.00;99401.09;5020622;28;20049;-73
2023/12/23 03:13:22;;;;;;;28.60;26.80;;;;;;;5.05;100.00;99403.97;5009476;28;20058;-73
2023/12/23 03:15:49;;;;;;;24.00;22.50;;;;;;;5.01;100.00;99402.72;5019720;28;20060;-73
2023/12/23 03:18:16;;;;;;;24.98;23.45;;;;;;;4.88;100.00;99391.41;5017617;28;20486;-73
2023/12/23 03:20:43;;;;;;;26.60;24.90;;;;;;;5.04;100.00;99391.78;5009460;28;20053;-73
2023/12/23 03:23:10;;;;;;;25.75;24.15;;;;;;;4.97;100.00;99382.28;5008449;28;20062;-74
2023/12/23 03:25:37;;;;;;;24.70;23.20;;;;;;;4.76;100.00;99383.28;5015623;28;20049;-73
2023/12/23 03:28:06;;;;;;;28.58;26.98;;;;;;;4.80;100.00;99364.25;5018781;28;20049;-74
2023/12/23 03:30:36;;;;;;;25.33;23.73;;;;;;;4.85;100.00;99354.97;5003122;28;20046;-74
2023/12/23 03:33:04;;;;;;;24.30;22.70;;;;;;;4.74;100.00;99366.88;5008503;28;20427;-74
2023/12/23 03:35:30;;;;;;;27.83;26.02;;;;;;;4.72;100.00;99382.03;5010112;28;20065;-74
2023/12/23 03:37:57;;;;;;;27.08;25.38;;;;;;;4.64;100.00;99398.84;5014124;28;20053;-73
2023/12/23 03:40:24;;;;;;;23.52;22.02;;;;;;;4.75;100.00;99426.34;5008708;28;20055;-74
2023/12/23 03:42:51;;;;;;;23.30;21.80;;;;;;;4.80;100.00;99429.22;5015491;28;20144;-74
2023/12/23 03:45:19;;;;;;;24.70;23.10;;;;;;;4.67;100.00;99419.47;5006635;28;20050;-74
2023/12/23 03:47:47;;;;;;;25.38;23.67;;;;;;;4.68;100.00;99420.28;5014846;28;20049;-74
2023/12/23 03:50:14;;;;;;;24.08;22.38;;;;;;;4.75;100.00;99435.09;5008974;28;20463;-74
2023/12/23 03:52:41;;;;;;;24.50;22.90;;;;;;;5.40;100.00;99410.84;5008621;28;20443;-74
2023/12/23 03:55:10;;;;;;;24.35;22.85;;;;;;;4.97;100.00;99392.81;5009898;28;20061;-74
2023/12/23 03:57:36;;;;;;;28.60;26.70;;;;;;;4.79;100.00;99375.78;5007873;28;20435;-73
2023/12/23 04:00:04;;;;;;;22.95;21.25;;;;;;;4.66;100.00;99362.63;5011944;28;20435;-73
2023/12/23 04:02:31;;;;;;;23.40;21.70;;;;;;;4.68;100.00;99341.38;5009503;28;20523;-73
2023/12/23 04:04:59;;;;;;;25.05;23.35;;;;;;;4.65;100.00;99320.75;5015468;28;20136;-73
2023/12/23 04:07:26;;;;;;;25.80;24.00;;;;;;;4.47;100.00;99334.47;5020685;28;20053;-73
2023/12/23 04:09:53;;;;;;;26.15;24.25;;;;;;;4.57;100.00;99348.06;5019203;28;20049;-73
2023/12/23 04:12:20;;;;;;;22.17;20.67;;;;;;;4.62;100.00;99350.88;5018235;28;20490;-74
2023/12/23 04:14:48;;;;;;;23.92;22.23;;;;;;;4.68;100.00;99325.59;5017923;28;20050;-74
2023/12/23 04:17:15;;;;;;;25.05;23.25;;;;;;;4.53;100.00;99307.38;5007208;28;20054;-73
2023/12/23 04:19:42;;;;;;;25.67;23.88;;;;;;;4.72;100.00;99288.19;5014172;28;20049;-74
2023/12/23 04:22:10;;;;;;;21.20;19.70;;;;;;;4.86;100.00;99267.94;5010189;28;20491;-74
2023/12/23 04:24:37;;;;;;;22.73;21.23;;;;;;;4.91;100.00;99267.34;5016270;28;20065;-74
2023/12/23 04:27:04;;;;;;;24.05;22.45;;;;;;;4.91;100.00;99278.66;5023663;28;20050;-74
2023/12/23 04:29:32;;;;;;;22.00;20.50;;;;;;;5.00;100.00;99300.31;5013083;28;20042;-74
2023/12/23 04:31:58;;;;;;;22.23;20.63;;;;;;;4.87;100.00;99314.28;5010671;28;20046;-74
2023/12/23 04:34:25;;;;;;;22.67;21.08;;;;;;;5.18;100.00;99334.72;5008577;28;20060;-74
2023/12/23 04:36:52;;;;;;;22.70;21.00;;;;;;;5.42;100.00;99340.34;5010070;28;20552;-74
2023/12/23 04:39:20;;;;;;;21.30;19.70;;;;;;;5.01;100.00;99336.13;5007449;28;20046;-75
2023/12/23 04:41:48;;;;;;;23.60;21.90;;;;;;;4.88;100.00;99328.25;5013647;28;20053;-74
2023/12/23 04:44:15;;;;;;;22.80;21.30;;;;;;;5.01;100.00;99330.88;5008839;28;20144;-74
2023/12/23 04:46:42;;;;;;;22.33;20.73;;;;;;;5.32;100.00;99332.03;5011949;28;20053;-73
2023/12/23 04:49:10;;;;;;;21.40;19.80;;;;;;;5.07;100.00;99337.16;5010236;28;20076;-74
2023/12/23 04:51:36;;;;;;;22.83;21.23;;;;;;;5.38;100.00;99341.75;5011082;28;20408;-74
2023/12/23 04:54:03;;;;;;;20.40;18.90;;;;;;;5.27;100.00;99332.69;5016370;28;20054;-73
2023/12/23 04:56:32;;;;;;;21.50;19.98;;;;;;;5.32;100.00;99339.94;5016100;28;20050;-73
2023/12/23 04:58:58;;;;;;;21.02;19.52;;;;;;;5.01;100.00;99331.66;5011146;28;20053;-73
2023/12/23 05:01:26;;;;;;;24.40;22.60;;;;;;;4.97;100.00;99324.41;5009270;28;20539;-74
2023/12/23 05:03:52;;;;;;;23.27;21.67;;;;;;;4.78;100.00;99323.38;5017051;28;20045;-73
2023/12/23 05:06:19;;;;;;;21.95;20.45;;;;;;;4.78;100.00;99312.84;5012493;28;20400;-74
2023/12/23 05:08:46;;;;;;;24.35;22.65;;;;;;;4.67;100.00;99321.34;5011780;28;20436;-74
2023/12/23 05:11:14;;;;;;;24.50;22.80;;;;;;;4.77;100.00;99313.88;5015510;28;20045;-74
2023/12/23 05:13:42;;;;;;;24.70;23.00;;;;;;;4.68;100.00;99315.06;5012204;28;20053;-74
2023/12/23 05:16:09;;;;;;;25.98;24.08;;;;;;;4.58;100.00;99318.91;5008373;28;20057;-74
2023/12/23 05:18:36;;;;;;;24.88;23.08;;;;;;;4.77;100.00;99316.50;5016540;28;20056;-74
2023/12/23 05:21:03;;;;;;;24.77;22.88;;;;;;;4.46;100.00;99327.59;5016912;28;20072;-74
2023/12/23 05:23:32;;;;;;;25.73;23.83;;;;;;;4.57;100.00;99335.72;5008819;28;20060;-74
2023/12/23 05:25:59;;;;;;;28.40;26.40;;;;;;;4.93;100.00;99341.59;5005845;28;20052;-74
2023/12/23 05:28:26;;;;;;;28.33;26.23;;;;;;;5.21;100.00;99351.91;5011181;28;20427;-74
2023/12/23 05:30:54;;;;;;;25.80;24.00;;;;;;;5.11;100.00;99364.66;5001228;28;20443;-74
2023/12/23 05:33:24;;;;;;;26.23;24.42;;;;;;;5.42;100.00;99356.16;5008399;28;20053;-74
2023/12/23 05:35:51;;;;;;;23.85;22.15;;;;;;;5.10;100.00;99349.91;5010054;28;20525;-74
2023/12/23 05:38:18;;;;;;;27.45;25.35;;;;;;;4.65;100.00;99350.47;5018131;28;20068;-74
2023/12/23 05:40:45;;;;;;;26.52;24.63;;;;;;;4.53;100.00;99345.00;5012781;28;20459;-74
2023/12/23 05:43:12;;;;;;;25.92;24.23;;;;;;;4.53;100.00;99344.19;5020378;28;20058;-75
2023/12/23 05:45:39;;;;;;;24.98;23.27;;;;;;;4.33;100.00;99344.97;5021332;28;20422;-74
2023/12/23 05:48:08;;;;;;;26.48;24.67;;;;;;;4.37;100.00;99342.75;5005505;28;20046;-74
2023/12/23 05:50:35;;;;;;;25.80;24.00;;;;;;;4.46;100.00;99324.97;5009825;28;20053;-74
2023/12/23 05:53:02;;;;;;;27.13;25.23;;;;;;;4.38;100.00;99331.22;5015243;28;20041;-74
2023/12/23 05:55:29;;;;;;;25.83;23.92;;;;;;;4.44;100.00;99338.31;5015183;28;20046;-75
2023/12/23 05:57:55;;;;;;;26.00;24.20;;;;;;;4.39;100.00;99340.75;5008344;28;20057;-75
2023/12/23 06:00:22;;;;;;;25.77;23.98;;;;;;;4.14;100.00;99306.28;5010549;28;20054;-74
2023/12/23 06:02:49;;;;;;;25.50;23.75;;;;;;;4.14;100.00;99293.16;5002448;28;20041;-73
2023/12/23 06:05:18;;;;;;;26.35;24.45;;;;;;;4.02;100.00;99298.16;5008982;28;20401;-75
2023/12/23 06:07:55;;;;;;;26.10;24.30;;;;;;;4.07;100.00;99287.88;5015072;28;20057;-73
2023/12/23 06:10:21;;;;;;;29.17;27.00;;;;;;;4.07;100.00;99287.06;5008371;28;20057;-73
2023/12/23 06:12:48;;;;;;;30.17;27.98;;;;;;;3.98;100.00;99289.06;5023472;28;20057;-74
2023/12/23 06:15:15;;;;;;;32.50;30.20;;;;;;;4.16;100.00;99308.72;5014365;28;20057;-75
2023/12/23 06:17:42;;;;;;;34.75;32.35;;;;;;;3.96;100.00;99298.94;5003944;28;20046;-72
2023/12/23 06:20:11;;;;;;;36.80;34.30;;;;;;;3.93;100.00;99280.16;5005500;28;20046;-73
2023/12/23 06:22:39;;;;;;;39.38;36.50;;;;;;;3.84;100.00;99277.72;5009008;28;20046;-72
2023/12/23 06:25:07;;;;;;;40.47;37.67;;;;;;;3.81;100.00;99280.75;5008199;28;20077;-73
2023/12/23 06:27:37;;;;;;;44.95;41.95;;;;;;;3.76;100.00;99291.03;5007038;28;20045;-72
2023/12/23 06:30:04;;;;;;;41.05;38.15;;;;;;;3.81;100.00;99293.88;5000291;28;20046;-73
2023/12/23 06:32:31;;;;;;;40.75;37.88;;;;;;;3.84;100.00;99300.53;5010139;28;20046;-73
2023/12/23 06:34:58;;;;;;;47.03;43.72;;;;;;;3.75;100.00;99297.28;5000256;28;20070;-72
2023/12/23 06:37:25;;;;;;;45.15;42.05;;;;;;;3.79;100.00;99295.06;5008689;28;20057;-72
2023/12/23 06:39:53;;;;;;;44.55;41.58;;;;;;;3.85;100.00;99284.59;5011904;28;20046;-73
2023/12/23 06:42:20;;;;;;;44.15;41.05;;;;;;;3.83;100.00;99280.53;5006338;28;20435;-72
2023/12/23 06:44:47;;;;;;;45.47;42.28;;;;;;;3.79;100.00;99274.06;5011233;28;20049;-73
2023/12/23 06:47:14;;;;;;;50.10;46.60;;;;;;;3.79;100.00;99280.13;5002520;28;20057;-72
2023/12/23 06:49:40;;;;;;;44.40;41.30;;;;;;;3.80;100.00;99281.72;5004066;28;20142;-72
2023/12/23 06:52:07;;;;;;;45.65;42.55;;;;;;;3.79;100.00;99263.56;5005724;28;20500;-72
2023/12/23 06:54:34;;;;;;;50.38;46.97;;;;;;;3.75;100.00;99257.06;5005373;28;20049;-72
2023/12/23 06:57:03;;;;;;;50.97;47.42;;;;;;;3.78;100.00;99247.00;5008173;28;20045;-73
2023/12/23 06:59:29;;;;;;;52.78;49.17;;;;;;;3.80;100.00;99265.97;5004824;28;20077;-73
2023/12/23 07:01:56;;;;;;;54.90;51.20;;;;;;;3.87;100.00;99253.69;5004294;28;20046;-74
2023/12/23 07:04:23;;;;;;;50.53;47.13;;;;;;;3.95;100.00;99254.50;5013259;28;20488;-74
2023/12/23 07:06:51;;;;;;;49.30;46.00;;;;;;;4.00;100.00;99265.25;5010686;28;20057;-74
2023/12/23 07:09:19;;;;;;;48.35;45.15;;;;;;;4.15;100.00;99270.34;5007721;28;20065;-74
2023/12/23 07:11:46;;;;;;;46.45;43.45;;;;;;;4.24;100.00;99263.88;5002116;28;20050;-74
2023/12/23 07:14:14;;;;;;;42.78;39.97;;;;;;;4.31;100.00;99259.44;5008996;28;20054;-73
2023/12/23 07:16:42;;;;;;;40.58;37.78;;;;;;;4.35;100.00;99276.41;5005102;28;20050;-73
2023/12/23 07:19:10;;;;;;;37.45;34.85;;;;;;;4.51;100.00;99276.03;5008237;28;20049;-73
2023/12/23 07:21:37;;;;;;;36.17;33.65;;;;;;;4.52;100.00;99288.16;5002841;28;20049;-74
2023/12/23 07:24:04;;;;;;;35.63;33.05;;;;;;;4.59;100.00;99298.69;5009603;28;20042;-74
2023/12/23 07:26:34;;;;;;;33.90;31.50;;;;;;;4.66;100.00;99315.28;5008714;28;20042;-73
2023/12/23 07:29:01;;;;;;;31.00;28.80;;;;;;;4.73;100.00;99329.25;5009350;28;20085;-73
2023/12/23 07:31:32;;;;;;;31.58;29.38;;;;;;;4.79;100.00;99336.34;5007914;28;20466;-74
2023/12/23 07:34:00;;;;;;;31.15;28.98;;;;;;;4.78;100.00;99332.09;5006908;28;20413;-73
2023/12/23 07:36:27;;;;;;;29.98;27.77;;;;;;;4.80;100.00;99337.94;5007257;28;20062;-74
2023/12/23 07:38:54;;;;;;;28.92;26.83;;;;;;;5.00;100.00;99337.16;5006127;28;20412;-74
2023/12/23 07:41:21;;;;;;;26.98;24.98;;;;;;;4.98;100.00;99339.16;5011302;28;20046;-74
2023/12/23 07:43:49;;;;;;;28.00;26.00;;;;;;;5.25;100.00;99345.22;5013687;28;20046;-74
2023/12/23 07:46:16;;;;;;;28.27;25.85;;;;;;;5.08;100.00;99342.19;5008529;28;20085;-74
2023/12/23 07:48:44;;;;;;;26.55;24.65;;;;;;;5.26;100.00;99334.50;5009994;28;20050;-73
2023/12/23 07:51:11;;;;;;;24.92;23.13;;;;;;;5.68;100.00;99319.19;5008232;28;20141;-73
2023/12/23 07:53:38;;;;;;;24.20;22.50;;;;;;;5.93;100.00;99307.97;5008454;28;20061;-74
2023/12/23 07:56:07;;;;;;;24.73;22.92;;;;;;;6.07;100.00;99321.91;5007621;28;20073;-72
2023/12/23 07:58:34;;;;;;;23.58;21.88;;;;;;;6.08;100.00;99339.34;5009428;28;20049;-73
2023/12/23 08:01:01;;;;;;;22.92;21.23;;;;;;;6.42;100.00;99361.91;5008709;28;20049;-73
2023/12/23 08:16:55;;;;;;;23.60;21.90;;;;;;;6.16;100.00;99386.56;5056941;27;20942;-92
2023/12/23 08:19:22;;;;;;;22.77;21.17;;;;;;;6.03;100.00;99381.34;5042318;28;20053;-92
2023/12/23 08:21:49;;;;;;;23.85;22.15;;;;;;;5.85;100.00;99368.81;5043529;28;20057;-93
2023/12/23 08:24:16;;;;;;;24.42;22.73;;;;;;;5.72;100.00;99372.28;5044132;28;20049;-93
2023/12/23 08:26:46;;;;;;;25.02;23.23;;;;;;;5.85;100.00;99364.34;5048705;28;20052;-93
2023/12/23 08:29:14;;;;;;;23.83;22.02;;;;;;;5.79;100.00;99398.63;5044669;28;20052;-93
2023/12/23 08:31:44;;;;;;;24.48;22.55;;;;;;;5.90;100.00;99414.59;5044875;28;20059;-92
2023/12/23 08:34:13;;;;;;;22.30;20.70;;;;;;;6.09;100.00;99434.03;5044584;28;20053;-93
2023/12/23 08:36:41;;;;;;;22.20;20.60;;;;;;;6.02;100.00;99441.16;5044006;28;20254;-92
2023/12/23 08:39:11;;;;;;;23.08;21.38;;;;;;;6.12;100.00;99422.28;5045171;28;20044;-92
2023/12/23 08:42:22;;;;;;;22.48;20.88;;;;;;;6.16;100.00;99432.19;5047159;28;20056;-92
2023/12/23 08:45:29;;;;;;;;;;;;;;;;;;;;;
2023/12/23 08:47:56;;;;;;;22.00;20.40;;;;;;;6.30;100.00;99432.97;5036654;28;20045;-93
2023/12/23 08:50:25;;;;;;;22.52;20.90;;;;;;;6.15;100.00;99430.56;5046213;28;20049;-91
2023/12/23 08:52:52;;;;;;;23.40;21.80;;;;;;;6.23;100.00;99428.72;5045705;28;20057;-93
2023/12/23 08:55:44;;;;;;;22.83;21.23;;;;;;;6.30;100.00;99437.41;5046593;28;20096;-93
2023/12/23 08:58:15;;;;;;;21.85;20.35;;;;;;;6.24;100.00;99446.16;5032672;28;20058;-91
2023/12/23 09:00:42;;;;;;;22.50;20.90;;;;;;;6.21;100.00;99451.84;5033891;28;20049;-92
2023/12/23 09:03:11;;;;;;;23.20;21.20;;;;;;;6.42;100.00;99439.19;5032514;28;20057;-91
2023/12/23 09:05:39;;;;;;;21.10;19.60;;;;;;;6.27;100.00;99443.91;5042106;28;20050;-92
2023/12/23 09:08:07;;;;;;;21.45;19.95;;;;;;;6.24;100.00;99454.88;5044277;28;20049;-92
2023/12/23 09:10:34;;;;;;;21.38;19.88;;;;;;;6.35;100.00;99448.13;5046676;28;20049;-92
2023/12/23 09:13:02;;;;;;;23.00;21.40;;;;;;;6.43;100.00;99451.34;5027241;28;20050;-92
2023/12/23 09:15:29;;;;;;;21.40;19.90;;;;;;;6.26;100.00;99441.47;5027305;28;20053;-92
2023/12/23 09:17:56;;;;;;;21.83;20.33;;;;;;;6.18;100.00;99438.06;5022436;28;20050;-92
2023/12/23 09:20:23;;;;;;;22.10;20.50;;;;;;;6.00;100.00;99419.47;5030504;28;20049;-91
2023/12/23 09:22:51;;;;;;;23.52;21.83;;;;;;;6.24;100.00;99427.72;5025635;28;20046;-92
2023/12/23 09:25:18;;;;;;;22.52;20.92;;;;;;;6.18;100.00;99432.00;5032458;28;20050;-91
2023/12/23 09:27:45;;;;;;;22.73;21.13;;;;;;;6.15;100.00;99422.66;5033468;28;20050;-91
2023/12/23 09:30:13;;;;;;;23.80;22.10;;;;;;;6.31;100.00;99437.19;5033078;28;20045;-91
2023/12/23 09:32:40;;;;;;;23.00;21.40;;;;;;;6.10;100.00;99419.03;5027045;28;20053;-92
2023/12/23 09:35:08;;;;;;;22.88;21.17;;;;;;;6.31;100.00;99439.03;5014232;28;20049;-91
2023/12/23 09:37:49;;;;;;;22.63;20.98;;;;;;;6.21;100.00;99438.69;5022663;28;20057;-92
2023/12/23 09:40:17;;;;;;;22.70;21.00;;;;;;;6.20;100.00;99456.31;5019144;28;20052;-92
2023/12/23 09:42:44;;;;;;;22.98;21.45;;;;;;;6.21;100.00;99467.69;5016187;28;20058;-92
2023/12/23 09:45:15;;;;;;;21.88;20.27;;;;;;;6.15;100.00;99456.94;5033488;28;20046;-92
2023/12/23 09:47:55;;;;;;;21.35;19.75;;;;;;;6.14;100.00;99460.59;5020846;28;20100;-91
2023/12/23 09:50:25;;;;;;;22.33;20.73;;;;;;;6.31;100.00;99468.84;5013488;28;20058;-91
2023/12/23 09:52:53;;;;;;;23.80;22.10;;;;;;;6.25;100.00;99471.50;5019520;28;20049;-92
2023/12/23 09:55:32;;;;;;;22.60;21.00;;;;;;;6.35;100.00;99469.22;5013770;28;20112;-92
2023/12/23 09:57:59;;;;;;;23.10;21.50;;;;;;;6.12;100.00;99473.16;5013875;28;20049;-92
2023/12/23 10:00:26;;;;;;;22.05;20.52;;;;;;;6.05;100.00;99477.66;5027744;28;20474;-92
2023/12/23 10:02:53;;;;;;;22.70;21.10;;;;;;;6.11;100.00;99481.28;5032985;28;20048;-91
2023/12/23 11:20:04;;;;;;;22.67;20.88;;;;;;;7.94;100.00;99417.94;5115639;27;20966;-72
2023/12/23 11:22:37;;;;;;;24.52;22.73;;;;;;;7.33;100.00;99418.72;5099216;27;20048;-71
2023/12/23 11:25:05;;;;;;;22.02;20.42;;;;;;;7.33;100.00;99414.25;5095486;28;20880;-69
2023/12/23 11:27:32;;;;;;;22.33;20.63;;;;;;;7.28;100.00;99386.84;5102378;28;20055;-71
2023/12/23 11:30:01;;;;;;;22.45;20.75;;;;;;;7.41;100.00;99417.63;5103601;28;20142;-70
2023/12/23 11:32:35;;;;;;;20.95;19.40;;;;;;;7.71;100.00;99431.78;5099822;28;20058;-69
2023/12/23 11:35:04;;;;;;;24.63;22.73;;;;;;;8.15;100.00;99406.09;5104877;28;20139;-70
2023/12/23 11:37:56;;;;;;;24.52;22.73;;;;;;;8.24;100.00;99418.00;5095749;28;20082;-69
2023/12/23 11:40:29;;;;;;;25.75;23.85;;;;;;;8.16;100.00;99412.19;5093129;28;20056;-72
2023/12/23 11:42:57;;;;;;;25.90;24.00;;;;;;;8.43;100.00;99431.22;5105255;28;20129;-71
2023/12/23 11:45:24;;;;;;;26.00;24.00;;;;;;;7.99;100.00;99414.63;5100718;28;20056;-71
2023/12/23 11:47:53;;;;;;;23.77;21.98;;;;;;;9.28;100.00;99443.47;5103250;28;20066;-71
2023/12/23 11:50:22;;;;;;;24.52;22.63;;;;;;;8.02;100.00;99425.56;5094740;28;20046;-69
2023/12/23 11:52:49;;;;;;;24.20;22.40;;;;;;;8.59;100.00;99421.84;5097971;28;20064;-69
2023/12/23 11:55:17;;;;;;;24.73;22.60;;;;;;;8.84;100.00;99422.53;5097891;28;20074;-69
2023/12/23 11:57:44;;;;;;;24.27;22.38;;;;;;;8.49;100.00;99404.66;5103313;28;20051;-71
2023/12/23 12:00:12;;;;;;;26.00;24.00;;;;;;;8.77;100.00;99437.69;5102974;28;20039;-71
2023/12/23 12:02:39;;;;;;;24.35;22.48;;;;;;;8.94;100.00;99435.22;5092080;28;20052;-69
2023/12/23 12:05:07;;;;;;;24.30;22.40;;;;;;;8.90;100.00;99428.78;5103474;28;20434;-70
2023/12/23 12:07:35;;;;;;;23.75;21.85;;;;;;;9.49;100.00;99456.16;5104662;28;20052;-71
2023/12/23 12:10:03;;;;;;;23.73;21.83;;;;;;;9.90;100.00;99465.06;5101679;28;20040;-70
2023/12/23 12:12:30;;;;;;;23.92;22.08;;;;;;;10.38;100.00;99469.28;5093709;28;20048;-70
2023/12/23 12:15:10;;;;;;;24.08;22.27;;;;;;;9.46;100.00;99493.72;5097056;28;20482;-70
2023/12/23 12:20:12;;;;;;;26.17;24.17;;;;;;;10.07;100.00;99499.63;5287692;22;20778;-71
2023/12/23 12:22:48;;;;;;;28.55;26.55;;;;;;;9.54;100.00;99521.75;5060178;28;20049;-71
2023/12/23 12:25:16;;;;;;;31.20;29.10;;;;;;;10.22;100.00;99523.84;5056551;28;20064;-74
2023/12/23 12:59:43;;;;;;;26.50;24.60;;;;;;;9.18;100.00;99653.31;5112387;27;20918;-71
2023/12/23 13:02:10;;;;;;;27.08;25.15;;;;;;;9.38;100.00;99669.78;5117173;27;20051;-70
2023/12/23 13:04:37;;;;;;;26.15;24.25;;;;;;;8.28;100.00;99677.59;5117548;27;20058;-71
2023/12/23 13:07:05;;;;;;;25.02;23.23;;;;;;;8.24;100.00;99676.44;5108473;27;20044;-70
2023/12/23 13:09:31;;;;;;;24.95;23.15;;;;;;;7.80;100.00;99676.31;5110702;27;20036;-69
2023/12/23 13:11:59;;;;;;;43.00;24.45;;;;;;;7.46;100.00;99700.50;5114594;27;20918;-71
2023/12/23 13:14:26;;;;;;;25.25;23.45;;;;;;;7.28;100.00;99707.25;5124981;27;20141;-71
2023/12/23 13:16:54;;;;;;;25.35;23.55;;;;;;;7.00;100.00;99696.19;5115458;27;20108;-71
2023/12/23 13:19:21;;;;;;;24.15;22.35;;;;;;;6.31;100.00;99695.66;5124274;27;20511;-70
2023/12/23 13:21:48;;;;;;;23.42;21.70;;;;;;;6.55;100.00;99715.31;5122892;27;20058;-71
2023/12/23 13:24:15;;;;;;;22.52;20.83;;;;;;;6.72;100.00;99712.25;5112134;27;20063;-70
2023/12/23 13:26:42;;;;;;;23.08;21.35;;;;;;;6.51;100.00;99714.13;5128666;27;20490;-69